Terminal Aerodrome Forecast
Issued by NWS

Home | Current Version | Previous Version | Graphics & Text | Print | Product List | Glossary On
Versions: 1 2 3 4 5 6 7 8 9 10 11 12 13 14 15 16 17
000
FTUS43 KABR 221900 AAA
TAFPIR
TAF AMD
KPIR 221957Z 2220/2318 16021G27KT P6SM BKN250
     FM230000 14017KT P6SM BKN100
     FM230600 14015KT P6SM VCSH OVC050
     FM231400 16013KT P6SM BKN050=

USA.gov is the U.S. government's official web portal to all federal, state and local government web resources and services.